KMHK/MHK METAR and TAF weather

Enter ICAO airport designator
Station Type Date Time Source
KMHK METAR 2021/10/22 17:52 UTC NOAA

KMHK 221752Z 21010KT 10SM CLR 22/07 A3000 RMK AO2 SLP160 T02220072 10222 20011 56028


Station Type Date Time Source
KMHK Decoded METAR 2021/10/22 17:52 UTC NOAA

MANHATTAN REGIONAL AIRPORT, KS, United States (KMHK) 39-08N 96-41W 317M
Oct 22, 2021 - 01:52 PM EDT / 2021.10.22 1752 UTC
Wind: from the SSW (210 degrees) at 12 MPH (10 KT):0
Visibility: 10 mile(s):0
Sky conditions: clear
Temperature: 72.0 F (22.2 C)
Dew Point: 45.0 F (7.2 C)
Relative Humidity: 37%
Pressure (altimeter): 30 in. Hg (1015 hPa)
Pressure tendency: 0.08 inches (2.8 hPa) lower than three hours ago
ob: KMHK 221752Z 21010KT 10SM CLR 22/07 A3000 RMK AO2 SLP160 T02220072 10222 20011 56028
cycle: 18

Station Type Date Time Source
KMHK TAF 2021/10/22 18:36 UTC NOAA

TAF KMHK 221734Z 2218/2318 21009KT P6SM SKC
FM230000 11005KT P6SM BKN045
FM231600 08007KT P6SM BKN025

Example: see airport list